Time;durP1;ratioP1;P1;durP2;ratioP2;P2;SDS_P1;SDS_P2;PMS_P1;PMS_P2;Temp;Humidity;BMP_temperature;BMP_pressure;BME280_temperature;BME280_humidity;BME280_pressure;Samples;Min_cycle;Max_cycle;Signal;HPM_P1;HPM_P2
2024/03/19 01:24:01;;;;;;;;;;;;;;;;;;;;;
2024/03/19 01:49:51;;;;;;;;;;;;;;;;;;;;;
2024/03/19 02:09:48;;;;;;;;;;;;;;;;;;;;;
2024/03/19 02:14:51;;;;;;;15.35;6.15;;;7.60;99.90;;;;;;8207836;28;20522;-83
2024/03/19 03:30:04;;;;;;;;;;;;;;;;;;;;;
2024/03/19 03:35:11;;;;;;;14.88;5.65;;;6.80;99.90;;;;;;8246562;28;20037;-83
2024/03/19 04:26:18;;;;;;;;;;;;;;;;;;;;;
2024/03/19 05:05:59;;;;;;;9.52;4.90;;;6.70;99.90;;;;;;8176256;29;20042;-84
2024/03/19 05:10:31;;;;;;;;;;;;;;;;;;;;;
2024/03/19 05:25:51;;;;;;;;;;;;;;;;;;;;;
2024/03/19 05:56:34;;;;;;;8.68;4.93;;;6.60;99.90;;;;;;7949203;29;20056;-83
2024/03/19 06:16:26;;;;;;;10.48;4.95;;;6.70;99.90;;;;;;8077271;29;20044;-85
2024/03/19 06:21:12;;;;;;;;;;;;;;;;;;;;;
2024/03/19 06:45:19;;;;;;;14.30;7.28;;;7.60;99.90;;;;;;8307944;28;20076;-85
2024/03/19 06:49:51;;;;;;;14.05;8.10;;;7.90;99.90;;;;;;8308712;28;20039;-85
2024/03/19 06:54:15;;;;;;;15.35;8.38;;;8.20;99.90;;;;;;8312289;28;20041;-85
2024/03/19 07:04:46;;;;;;;;;;;;;;;;;;;;;
2024/03/19 07:18:52;;;;;;;7.43;4.53;;;10.00;99.90;;;;;;8176785;29;20058;-84
2024/03/19 07:53:48;;;;;;;9.88;4.32;;;11.20;99.90;;;;;;8170556;28;20034;-84
2024/03/19 07:58:40;;;;;;;10.23;4.72;;;10.80;99.90;;;;;;8303953;28;20077;-84
2024/03/19 08:03:43;;;;;;;;;;;;;;;;;;;;;
2024/03/19 08:08:23;;;;;;;8.55;4.18;;;11.00;99.90;;;;;;8285427;28;20146;-84
2024/03/19 08:13:07;;;;;;;8.27;4.55;;;11.10;99.90;;;;;;8272456;28;20041;-83
2024/03/19 08:17:37;;;;;;;9.52;4.75;;;10.90;99.90;;;;;;8262452;28;20042;-83
2024/03/19 08:23:00;;;;;;;8.32;4.30;;;11.00;99.90;;;;;;8295976;28;20030;-83
2024/03/19 08:26:52;;;;;;;8.82;4.22;;;11.10;99.90;;;;;;8335098;28;20037;-84
2024/03/19 08:30:56;;;;;;;7.85;4.43;;;11.30;99.90;;;;;;8321682;28;20556;-81
2024/03/19 08:35:08;;;;;;;9.73;4.68;;;11.60;99.90;;;;;;8335355;28;20025;-84
2024/03/19 08:39:20;;;;;;;9.75;4.32;;;11.60;99.90;;;;;;8317487;28;20397;-83
2024/03/19 08:43:33;;;;;;;8.43;5.20;;;11.80;99.90;;;;;;8329998;28;20029;-83
2024/03/19 08:47:40;;;;;;;11.18;4.15;;;12.30;99.90;;;;;;8337551;28;20029;-83
2024/03/19 08:51:41;;;;;;;9.45;4.78;;;12.70;99.90;;;;;;8340228;28;20032;-83
2024/03/19 08:55:42;;;;;;;9.07;4.78;;;13.00;99.90;;;;;;8337558;28;20025;-83
2024/03/19 08:59:45;;;;;;;7.18;4.00;;;13.30;99.90;;;;;;8340866;28;20026;-82
2024/03/19 09:03:48;;;;;;;9.13;5.07;;;13.40;99.90;;;;;;8339985;28;20677;-82
2024/03/19 09:07:49;;;;;;;7.70;3.63;;;13.00;99.90;;;;;;8342796;28;20025;-82
2024/03/19 09:11:52;;;;;;;6.68;4.00;;;13.10;99.90;;;;;;8355800;28;20040;-81
2024/03/19 09:15:53;;;;;;;9.18;4.93;;;13.20;99.90;;;;;;8334360;28;20028;-82
2024/03/19 09:19:54;;;;;;;8.00;4.60;;;13.30;99.90;;;;;;8325324;28;20053;-82
2024/03/19 09:23:54;;;;;;;7.72;4.45;;;13.50;99.90;;;;;;8341097;28;20144;-82
2024/03/19 09:27:56;;;;;;;8.60;4.32;;;13.00;99.90;;;;;;8334220;28;20046;-82
2024/03/19 09:31:59;;;;;;;8.05;3.90;;;12.90;99.90;;;;;;8323009;28;20129;-82
2024/03/19 09:36:00;;;;;;;4.32;2.88;;;13.20;99.90;;;;;;8340239;28;20041;-82
2024/03/19 09:40:08;;;;;;;5.63;3.33;;;12.70;99.90;;;;;;8336248;28;20033;-82
2024/03/19 09:44:16;;;;;;;9.27;4.38;;;13.00;99.90;;;;;;8329878;28;20021;-82
2024/03/19 09:48:18;;;;;;;7.25;3.75;;;13.20;99.90;;;;;;8325556;28;20125;-82
2024/03/19 09:52:22;;;;;;;6.43;3.83;;;13.30;99.90;;;;;;8337360;28;20056;-82
2024/03/19 09:56:23;;;;;;;4.47;3.22;;;13.40;99.90;;;;;;8337480;28;20024;-82
2024/03/19 10:00:28;;;;;;;6.93;3.22;;;13.20;99.90;;;;;;8320516;28;20089;-81
2024/03/19 10:04:29;;;;;;;6.55;4.00;;;12.70;99.90;;;;;;8318274;28;20104;-82
2024/03/19 10:08:29;;;;;;;6.13;3.00;;;12.70;99.90;;;;;;8324591;28;20032;-82
2024/03/19 10:12:32;;;;;;;5.45;3.22;;;12.60;99.90;;;;;;8310881;28;20025;-83
2024/03/19 10:16:32;;;;;;;7.90;3.80;;;13.00;99.90;;;;;;8312510;28;21441;-83
2024/03/19 10:20:36;;;;;;;5.25;3.30;;;13.00;99.90;;;;;;8317618;28;20111;-82
2024/03/19 10:24:47;;;;;;;6.53;2.90;;;13.50;99.90;;;;;;8312521;28;20729;-83
2024/03/19 10:28:47;;;;;;;4.57;2.90;;;14.00;99.90;;;;;;8316900;28;20551;-83
2024/03/19 10:32:51;;;;;;;3.33;2.30;;;14.30;99.90;;;;;;8316013;28;20025;-84
2024/03/19 10:36:53;;;;;;;4.18;2.42;;;15.20;99.90;;;;;;8340953;28;20036;-84
2024/03/19 10:40:55;;;;;;;3.55;2.38;;;15.80;99.90;;;;;;8315186;28;20521;-84
2024/03/19 10:44:56;;;;;;;4.10;2.33;;;16.50;99.90;;;;;;8331863;28;20437;-84
2024/03/19 10:48:57;;;;;;;2.45;1.63;;;16.50;99.90;;;;;;8318389;28;20028;-84
2024/03/19 10:53:03;;;;;;;4.10;2.28;;;15.50;99.90;;;;;;8311920;28;20061;-84
2024/03/19 10:57:06;;;;;;;7.20;3.17;;;16.00;99.90;;;;;;8327646;28;20122;-84
2024/03/19 11:01:06;;;;;;;3.28;1.85;;;16.60;99.90;;;;;;8329177;28;20042;-84
2024/03/19 11:05:18;;;;;;;2.97;2.00;;;16.30;99.90;;;;;;8337122;28;20072;-84
2024/03/19 11:09:21;;;;;;;3.88;2.33;;;16.30;99.90;;;;;;8332116;28;20479;-84
2024/03/19 11:13:25;;;;;;;3.53;1.60;;;17.50;99.90;;;;;;8308263;28;20387;-85
2024/03/19 11:17:27;;;;;;;3.75;2.28;;;17.90;99.90;;;;;;8319963;28;20163;-85
2024/03/19 11:21:27;;;;;;;1.73;1.60;;;18.00;99.90;;;;;;8340349;28;20433;-85
2024/03/19 11:25:29;;;;;;;2.00;1.42;;;19.00;99.90;;;;;;8318235;28;20107;-85
2024/03/19 11:29:33;;;;;;;1.83;1.10;;;20.10;99.90;;;;;;8309027;28;20030;-85
2024/03/19 11:33:37;;;;;;;2.05;1.35;;;21.50;99.90;;;;;;8315524;28;20115;-85
2024/03/19 11:37:37;;;;;;;1.77;1.27;;;23.30;99.90;;;;;;8314817;28;20116;-85
2024/03/19 11:41:38;;;;;;;1.13;0.90;;;23.20;99.90;;;;;;8326461;28;20033;-85
2024/03/19 11:45:40;;;;;;;1.90;1.00;;;23.00;99.90;;;;;;8319212;28;20025;-84
2024/03/19 11:49:40;;;;;;;1.48;1.02;;;21.40;99.90;;;;;;8322570;28;20032;-85
2024/03/19 11:53:41;;;;;;;1.20;0.90;;;21.30;99.90;;;;;;8344443;28;20351;-85
2024/03/19 11:57:42;;;;;;;1.00;0.80;;;20.90;99.90;;;;;;8331526;28;20070;-85
2024/03/19 12:01:43;;;;;;;1.20;0.98;;;21.10;99.90;;;;;;8346625;28;20032;-84
2024/03/19 12:05:48;;;;;;;1.15;0.95;;;20.40;99.90;;;;;;8319608;28;20033;-85
2024/03/19 12:09:49;;;;;;;1.05;0.80;;;19.70;99.90;;;;;;8342329;28;20111;-84
2024/03/19 12:13:51;;;;;;;1.42;0.90;;;19.20;99.90;;;;;;8342777;28;20021;-85
2024/03/19 12:17:53;;;;;;;1.20;1.10;;;18.70;99.90;;;;;;8340896;28;20053;-84
2024/03/19 12:21:55;;;;;;;1.20;1.00;;;21.00;99.90;;;;;;8350138;28;20022;-84
2024/03/19 12:25:55;;;;;;;1.52;1.23;;;20.10;99.90;;;;;;8350034;28;20037;-85
2024/03/19 12:29:58;;;;;;;1.10;0.80;;;20.90;99.90;;;;;;8343320;28;20018;-84
2024/03/19 12:34:16;;;;;;;1.30;0.95;;;20.30;99.90;;;;;;8350144;28;20033;-85
2024/03/19 12:38:18;;;;;;;1.30;0.77;;;22.10;99.90;;;;;;8343280;28;20405;-84
2024/03/19 12:42:19;;;;;;;1.25;0.70;;;20.20;99.90;;;;;;8338160;28;20037;-85
2024/03/19 12:46:25;;;;;;;2.53;0.70;;;17.30;99.90;;;;;;8339591;28;20342;-85
2024/03/19 12:50:26;;;;;;;1.95;0.70;;;16.40;99.90;;;;;;8332808;28;20029;-85
2024/03/19 12:59:25;;;;;;;1.25;0.70;;;17.10;99.90;;;;;;8345240;28;20069;-82
2024/03/19 13:03:44;;;;;;;;;;;;;;;;;;;;;
2024/03/19 13:23:49;;;;;;;0.65;0.50;;;18.00;99.90;;;;;;8362690;28;20042;-83
2024/03/19 13:27:53;;;;;;;2.22;0.65;;;19.60;99.90;;;;;;8359984;28;20088;-83
2024/03/19 13:32:58;;;;;;;0.80;0.70;;;19.80;99.90;;;;;;8428221;28;20048;-82
2024/03/19 13:37:02;;;;;;;0.52;0.52;;;19.80;99.90;;;;;;8428299;28;20043;-82
2024/03/19 13:41:06;;;;;;;0.73;0.63;;;19.90;99.90;;;;;;8428497;28;20059;-82
2024/03/19 13:45:07;;;;;;;1.40;0.70;;;20.20;99.90;;;;;;8419724;28;20105;-82
2024/03/19 13:49:09;;;;;;;1.23;0.57;;;19.70;99.90;;;;;;8427433;28;20120;-82
2024/03/19 13:53:10;;;;;;;1.08;0.73;;;20.10;99.90;;;;;;8438305;28;20031;-82
2024/03/19 13:57:12;;;;;;;0.50;0.50;;;19.90;99.90;;;;;;8420371;28;20042;-83
2024/03/19 14:01:22;;;;;;;3.40;0.73;;;21.40;99.90;;;;;;8415697;28;20071;-83
2024/03/19 14:05:23;;;;;;;0.77;0.65;;;21.80;99.90;;;;;;8417214;28;20028;-83
2024/03/19 14:09:31;;;;;;;0.50;0.50;;;20.10;99.90;;;;;;8419073;28;20027;-82
2024/03/19 14:13:39;;;;;;;0.60;0.60;;;19.50;99.90;;;;;;8420412;28;20020;-82
2024/03/19 14:17:41;;;;;;;0.30;0.30;;;18.00;99.90;;;;;;8392707;28;20123;-82
2024/03/19 14:21:53;;;;;;;0.80;0.50;;;17.80;99.90;;;;;;8391912;28;20027;-82
2024/03/19 14:26:03;;;;;;;0.70;0.50;;;18.60;99.90;;;;;;8382178;28;20070;-82
2024/03/19 14:30:04;;;;;;;0.40;0.40;;;18.60;99.90;;;;;;8398993;28;20131;-82
2024/03/19 14:34:05;;;;;;;0.68;0.57;;;18.20;99.90;;;;;;8384923;28;20032;-82
2024/03/19 14:38:09;;;;;;;0.73;0.60;;;18.70;99.90;;;;;;8394824;28;20078;-83
2024/03/19 14:42:10;;;;;;;0.85;0.60;;;18.90;99.90;;;;;;8383716;28;20610;-82
2024/03/19 14:46:10;;;;;;;0.90;0.60;;;18.50;99.90;;;;;;8405150;28;20048;-82
2024/03/19 14:50:11;;;;;;;1.42;0.65;;;17.70;99.90;;;;;;8403824;28;20509;-82
2024/03/19 14:54:12;;;;;;;1.02;0.70;;;18.00;99.90;;;;;;8406882;28;20024;-83
2024/03/19 14:58:18;;;;;;;0.40;0.40;;;17.60;99.90;;;;;;8384592;28;20033;-82
2024/03/19 15:02:24;;;;;;;0.60;0.60;;;17.70;99.90;;;;;;8387120;28;20036;-82
2024/03/19 15:06:25;;;;;;;1.27;0.70;;;17.40;99.90;;;;;;8384708;28;20088;-82
2024/03/19 15:10:26;;;;;;;0.95;0.70;;;17.30;99.90;;;;;;8381834;28;20031;-83
2024/03/19 15:14:27;;;;;;;0.93;0.80;;;16.80;99.90;;;;;;8403632;28;20048;-83
2024/03/19 15:18:30;;;;;;;1.23;0.68;;;16.40;99.90;;;;;;8394987;28;20051;-83
2024/03/19 15:22:54;;;;;;;0.95;0.77;;;16.10;99.90;;;;;;8396552;28;20547;-82
2024/03/19 15:26:54;;;;;;;0.85;0.70;;;15.90;99.90;;;;;;8412090;28;20090;-82
2024/03/19 15:30:56;;;;;;;0.93;0.60;;;15.80;99.90;;;;;;8392289;28;20093;-82
2024/03/19 15:34:59;;;;;;;0.70;0.60;;;15.70;99.90;;;;;;8399492;28;20122;-83
2024/03/19 15:38:59;;;;;;;0.98;0.80;;;15.60;99.90;;;;;;8397173;28;20032;-82
2024/03/19 15:43:00;;;;;;;0.80;0.55;;;15.70;99.90;;;;;;8400845;28;20412;-83
2024/03/19 15:47:01;;;;;;;1.50;0.70;;;15.40;99.90;;;;;;8403526;28;20017;-82
2024/03/19 15:51:01;;;;;;;0.52;0.52;;;15.40;99.90;;;;;;8401223;28;20024;-82
2024/03/19 15:55:07;;;;;;;0.60;0.60;;;15.10;99.90;;;;;;8395234;28;20043;-82
2024/03/19 15:59:08;;;;;;;1.10;0.77;;;15.00;99.90;;;;;;8375007;28;20435;-83
2024/03/19 16:03:12;;;;;;;0.90;0.70;;;15.00;99.90;;;;;;8378648;28;20113;-79
2024/03/19 16:07:20;;;;;;;0.68;0.60;;;15.00;99.90;;;;;;8395369;28;20460;-83
2024/03/19 16:11:23;;;;;;;1.15;0.60;;;15.20;99.90;;;;;;8385929;28;20128;-82
2024/03/19 16:16:16;;;;;;;1.02;0.80;;;15.40;99.90;;;;;;8395416;28;20021;-88
2024/03/19 16:20:49;;;;;;;;;;;;;;;;;;;;;
2024/03/19 16:30:53;;;;;;;2.57;1.20;;;15.00;99.90;;;;;;8289025;28;20057;-88
2024/03/19 16:35:20;;;;;;;2.55;1.42;;;14.80;99.90;;;;;;8281597;28;20766;-89
2024/03/19 16:39:23;;;;;;;4.63;2.10;;;14.50;99.90;;;;;;8277011;28;20576;-90
2024/03/19 16:43:50;;;;;;;1.92;1.30;;;14.30;99.90;;;;;;8275054;28;20029;-89
2024/03/19 16:58:00;;;;;;;2.22;0.90;;;13.10;99.90;;;;;;8293930;28;20041;-87
2024/03/19 17:02:14;;;;;;;2.05;1.30;;;12.60;99.90;;;;;;8281354;28;20053;-87
2024/03/19 17:06:38;;;;;;;1.00;0.90;;;12.20;99.90;;;;;;8366865;28;20024;-85
2024/03/19 17:21:43;;;;;;;;;;;;;;;;;;;;;
2024/03/19 17:46:56;;;;;;;;;;;9.80;99.90;;;;;;8350181;28;20545;-89
2024/03/19 17:50:56;;;;;;;4.10;0.93;;;9.70;99.90;;;;;;8324801;28;20301;-84
2024/03/19 17:54:57;;;;;;;1.67;1.17;;;9.50;99.90;;;;;;8324428;28;20064;-84
2024/03/19 17:58:59;;;;;;;1.50;0.88;;;9.30;99.90;;;;;;8316286;28;20406;-85
2024/03/19 18:03:00;;;;;;;0.98;0.73;;;9.00;99.90;;;;;;8329430;28;20108;-84
2024/03/19 18:07:01;;;;;;;3.00;1.70;;;8.90;99.90;;;;;;8316606;28;20112;-84
2024/03/19 18:11:04;;;;;;;7.03;3.30;;;8.80;99.90;;;;;;8316570;28;20029;-84
2024/03/19 18:15:08;;;;;;;7.35;3.83;;;8.60;99.90;;;;;;8314396;28;20414;-84
2024/03/19 18:19:12;;;;;;;7.72;3.88;;;8.40;99.90;;;;;;8317542;28;20030;-86
2024/03/19 18:23:12;;;;;;;10.23;4.63;;;8.40;99.90;;;;;;8329783;28;20082;-86
2024/03/19 18:27:13;;;;;;;9.25;4.50;;;8.20;99.90;;;;;;8338728;28;20481;-86
2024/03/19 18:31:15;;;;;;;8.35;4.30;;;8.10;99.90;;;;;;8321402;28;20540;-86
2024/03/19 18:35:16;;;;;;;7.22;3.90;;;8.10;99.90;;;;;;8323781;28;20121;-85
2024/03/19 18:39:23;;;;;;;7.82;4.15;;;7.90;99.90;;;;;;8343584;28;20029;-85
2024/03/19 18:43:31;;;;;;;8.98;2.88;;;7.80;99.90;;;;;;8321524;28;20232;-86
2024/03/19 18:47:41;;;;;;;5.72;3.35;;;7.60;99.90;;;;;;8349844;28;20021;-86
2024/03/19 18:51:41;;;;;;;10.55;5.57;;;7.60;99.90;;;;;;8340889;28;20321;-86
2024/03/19 18:55:45;;;;;;;9.30;5.38;;;7.50;99.90;;;;;;8328251;28;20032;-86
2024/03/19 18:59:46;;;;;;;9.80;5.57;;;7.50;99.90;;;;;;8327933;28;20052;-85
2024/03/19 19:03:46;;;;;;;8.15;3.97;;;7.40;99.90;;;;;;8321356;28;20041;-85
2024/03/19 19:07:56;;;;;;;6.32;3.58;;;7.40;99.90;;;;;;8344896;28;20373;-85
2024/03/19 19:11:57;;;;;;;5.05;3.03;;;7.50;99.90;;;;;;8317515;28;20034;-84
2024/03/19 19:15:57;;;;;;;5.38;3.10;;;7.40;99.90;;;;;;8344608;28;20049;-85
2024/03/19 19:20:01;;;;;;;4.43;2.88;;;7.20;99.90;;;;;;8329275;28;20029;-85
2024/03/19 19:24:02;;;;;;;5.25;3.38;;;6.80;99.90;;;;;;8348286;28;20108;-85
2024/03/19 19:28:07;;;;;;;6.85;4.25;;;6.70;99.90;;;;;;8338715;28;20617;-85
2024/03/19 19:32:09;;;;;;;7.28;4.05;;;6.60;99.90;;;;;;8349281;28;20040;-85
2024/03/19 19:36:10;;;;;;;9.25;6.18;;;6.50;99.90;;;;;;8337532;28;20112;-85
2024/03/19 19:40:12;;;;;;;10.30;5.30;;;6.50;99.90;;;;;;8330600;28;20079;-85
2024/03/19 19:44:13;;;;;;;11.27;3.92;;;6.60;99.90;;;;;;8341861;28;20029;-85
2024/03/19 19:48:14;;;;;;;7.72;3.90;;;6.70;99.90;;;;;;8328239;28;20030;-85
2024/03/19 19:52:17;;;;;;;4.60;2.92;;;6.60;99.90;;;;;;8330418;28;20040;-85
2024/03/19 19:56:18;;;;;;;5.53;2.67;;;6.50;99.90;;;;;;8354033;28;20044;-86
2024/03/19 20:00:24;;;;;;;8.60;2.28;;;6.30;99.90;;;;;;8328904;28;20021;-86
2024/03/19 20:04:25;;;;;;;4.00;2.33;;;6.10;99.90;;;;;;8344262;28;20100;-86
2024/03/19 20:08:25;;;;;;;17.33;6.32;;;5.90;99.90;;;;;;8333784;28;20021;-85
2024/03/19 20:12:27;;;;;;;11.25;5.10;;;5.80;99.90;;;;;;8325270;28;20055;-85
2024/03/19 20:16:28;;;;;;;39.95;16.73;;;5.70;99.90;;;;;;8335508;28;20068;-86
2024/03/19 20:20:31;;;;;;;16.30;7.80;;;5.60;99.90;;;;;;8327267;28;20044;-85
2024/03/19 20:24:32;;;;;;;12.13;6.38;;;5.60;99.90;;;;;;8331543;28;20116;-85
2024/03/19 20:28:33;;;;;;;8.90;4.65;;;5.50;99.90;;;;;;8324991;28;20508;-86
2024/03/19 20:32:36;;;;;;;10.18;5.97;;;5.50;99.90;;;;;;8337462;28;20068;-85
2024/03/19 20:36:37;;;;;;;8.45;4.22;;;5.40;99.90;;;;;;8330727;28;20033;-85
2024/03/19 20:40:38;;;;;;;6.75;3.28;;;5.30;99.90;;;;;;8342025;28;20662;-85
2024/03/19 20:44:39;;;;;;;9.10;4.38;;;5.10;99.90;;;;;;8323463;28;20473;-85
2024/03/19 20:48:42;;;;;;;8.43;4.43;;;5.00;99.90;;;;;;8327927;28;20633;-86
2024/03/19 20:52:44;;;;;;;17.55;6.63;;;5.00;99.90;;;;;;8345032;28;20105;-85
2024/03/19 20:56:45;;;;;;;10.15;5.75;;;5.00;99.90;;;;;;8341200;28;20104;-86
2024/03/19 21:00:46;;;;;;;8.43;4.65;;;5.10;99.90;;;;;;8337645;28;20517;-85
2024/03/19 21:04:47;;;;;;;9.65;4.68;;;5.20;99.90;;;;;;8357551;22;20085;-84
2024/03/19 21:08:48;;;;;;;10.40;5.53;;;5.00;99.90;;;;;;8376107;28;20554;-82
2024/03/19 21:12:49;;;;;;;10.10;4.72;;;4.90;99.90;;;;;;8371066;28;20044;-83
2024/03/19 21:16:49;;;;;;;11.77;5.93;;;4.90;99.90;;;;;;8364531;28;20111;-82
2024/03/19 21:20:50;;;;;;;9.07;4.88;;;4.90;99.90;;;;;;8362741;28;20044;-82
2024/03/19 21:24:54;;;;;;;10.15;5.13;;;4.80;99.90;;;;;;8350034;28;20033;-80
2024/03/19 21:28:54;;;;;;;13.23;5.78;;;4.60;99.90;;;;;;8367588;28;20500;-83
2024/03/19 21:32:55;;;;;;;9.77;4.57;;;4.40;99.90;;;;;;8367432;28;20100;-83
2024/03/19 21:36:55;;;;;;;11.75;5.70;;;4.40;99.90;;;;;;8367720;28;20028;-82
2024/03/19 21:40:56;;;;;;;10.18;4.55;;;4.40;99.90;;;;;;8356652;28;20111;-82
2024/03/19 21:44:56;;;;;;;9.23;4.45;;;4.40;99.90;;;;;;8378324;28;20035;-82
2024/03/19 21:48:57;;;;;;;12.45;3.83;;;4.30;99.90;;;;;;8373918;28;20032;-82
2024/03/19 21:52:58;;;;;;;5.22;2.78;;;4.20;99.90;;;;;;8369275;28;20657;-82
2024/03/19 21:56:59;;;;;;;5.05;3.00;;;4.10;99.90;;;;;;8369065;28;20028;-82
2024/03/19 22:00:59;;;;;;;4.88;3.15;;;4.00;99.90;;;;;;8365497;28;20075;-82
2024/03/19 22:05:00;;;;;;;5.78;3.05;;;3.90;99.90;;;;;;8363384;28;20028;-82
2024/03/19 22:09:01;;;;;;;6.28;2.95;;;3.80;99.90;;;;;;8373234;28;20041;-81
2024/03/19 22:13:03;;;;;;;3.47;2.30;;;3.80;99.90;;;;;;8377363;28;20067;-83
2024/03/19 22:17:03;;;;;;;5.35;3.08;;;3.70;99.90;;;;;;8378428;28;20033;-82
2024/03/19 22:21:04;;;;;;;4.82;3.03;;;3.50;99.90;;;;;;8374934;28;20029;-82
2024/03/19 22:25:06;;;;;;;7.72;3.03;;;3.40;99.90;;;;;;8374169;28;20052;-82
2024/03/19 22:29:06;;;;;;;5.10;2.55;;;3.30;99.90;;;;;;8360341;28;20033;-82
2024/03/19 22:33:07;;;;;;;6.70;3.22;;;3.30;99.90;;;;;;8375343;28;20078;-82
2024/03/19 22:37:08;;;;;;;5.53;2.95;;;3.30;99.90;;;;;;8383700;28;20024;-82
2024/03/19 22:41:09;;;;;;;5.68;3.55;;;3.30;99.90;;;;;;8372215;28;20021;-82
2024/03/19 22:45:09;;;;;;;6.07;3.13;;;3.30;99.90;;;;;;8361980;28;20050;-82
2024/03/19 22:49:10;;;;;;;5.95;2.65;;;3.30;99.90;;;;;;8357884;28;20029;-82
2024/03/19 22:53:11;;;;;;;6.82;3.50;;;3.20;99.90;;;;;;8386206;28;20074;-82
2024/03/19 22:57:12;;;;;;;6.90;3.17;;;3.10;99.90;;;;;;8374239;28;20032;-82
2024/03/19 23:01:13;;;;;;;7.22;3.25;;;3.20;99.90;;;;;;8359726;28;20087;-82
2024/03/19 23:05:13;;;;;;;5.30;3.33;;;3.10;99.90;;;;;;8379213;28;20031;-82
2024/03/19 23:09:14;;;;;;;6.68;3.35;;;3.10;99.90;;;;;;8370150;28;20024;-82
2024/03/19 23:13:14;;;;;;;5.80;3.10;;;3.00;99.90;;;;;;8381422;28;20033;-82
2024/03/19 23:17:15;;;;;;;5.57;2.97;;;3.10;99.90;;;;;;8362035;28;20071;-82
2024/03/19 23:21:15;;;;;;;7.22;3.22;;;3.00;99.90;;;;;;8382766;28;20048;-82
2024/03/19 23:25:16;;;;;;;6.72;3.08;;;3.00;99.90;;;;;;8362650;28;20024;-82
2024/03/19 23:29:17;;;;;;;4.32;2.83;;;2.90;99.90;;;;;;8356647;28;20047;-82
2024/03/19 23:33:17;;;;;;;4.03;2.70;;;2.80;99.90;;;;;;8372449;28;20492;-82
2024/03/19 23:37:18;;;;;;;6.35;2.70;;;2.80;99.90;;;;;;8362559;28;20048;-82
2024/03/19 23:41:18;;;;;;;5.47;3.08;;;2.80;99.90;;;;;;8375011;28;20021;-82
2024/03/19 23:45:19;;;;;;;5.43;3.00;;;2.80;99.90;;;;;;8384298;28;20021;-82
2024/03/19 23:49:20;;;;;;;5.32;2.30;;;2.80;99.90;;;;;;8374639;28;20477;-82
2024/03/19 23:53:21;;;;;;;5.10;2.47;;;2.70;99.90;;;;;;8383999;28;20067;-83
2024/03/19 23:57:23;;;;;;;4.28;2.40;;;2.70;99.90;;;;;;8382149;28;20052;-83
